KMCB/MCB METAR and TAF weather

Enter ICAO airport designator
Station Type Date Time Source
KMCB METAR 2019/04/22 19:53 UTC NOAA

KMCB 221953Z AUTO 20011G15KT 10SM CLR 26/07 A3015 RMK AO2 SLP207 T02610072


Station Type Date Time Source
KMCB Decoded METAR 2019/04/22 19:53 UTC NOAA

MCCOMB/PIKE COUNTY AIRPORT, MS, United States (KMCB) 31-11N 90-28W 124M
Apr 22, 2019 - 03:53 PM EDT / 2019.04.22 1953 UTC
Wind: from the SSW (200 degrees) at 13 MPH (11 KT) gusting to 17 MPH (15 KT):0
Visibility: 10 mile(s):0
Sky conditions: clear
Temperature: 79.0 F (26.1 C)
Dew Point: 45.0 F (7.2 C)
Relative Humidity: 30%
Pressure (altimeter): 30.15 in. Hg (1020 hPa)
ob: KMCB 221953Z AUTO 20011G15KT 10SM CLR 26/07 A3015 RMK AO2 SLP207 T02610072
cycle: 20

Station Type Date Time Source
KMCB TAF 2019/04/22 18:33 UTC NOAA

TAF KMCB 221730Z 2218/2318 16008KT P6SM SCT250
FM230000 16003KT P6SM BKN200
FM231500 16006KT P6SM SCT200

Example: see airport list